Time;durP1;ratioP1;P1;durP2;ratioP2;P2;SDS_P1;SDS_P2;PMS_P1;PMS_P2;Temp;Humidity;BMP_temperature;BMP_pressure;BME280_temperature;BME280_humidity;BME280_pressure;Samples;Min_cycle;Max_cycle;Signal;HPM_P1;HPM_P2
2023/03/04 00:00:49;;;;;;;12.93;1.23;;;6.20;99.90;;;;;;5029484;28;20041;-75
2023/03/04 00:03:15;;;;;;;13.73;0.85;;;6.20;99.90;;;;;;5024937;28;20048;-77
2023/03/04 00:05:41;;;;;;;9.02;1.45;;;6.20;99.90;;;;;;5026160;28;20028;-75
2023/03/04 00:08:07;;;;;;;10.57;1.00;;;6.20;99.90;;;;;;5027393;28;20060;-79
2023/03/04 00:10:34;;;;;;;14.75;1.00;;;6.20;99.90;;;;;;5028795;28;20044;-80
2023/03/04 00:13:00;;;;;;;14.23;1.48;;;6.20;99.90;;;;;;4992100;28;20044;-76
2023/03/04 00:15:26;;;;;;;12.98;1.70;;;6.20;99.90;;;;;;5011221;28;20484;-77
2023/03/04 00:17:53;;;;;;;11.75;1.17;;;6.10;99.90;;;;;;5025166;28;20037;-75
2023/03/04 00:20:19;;;;;;;16.75;1.00;;;6.20;99.90;;;;;;5010794;28;20037;-78
2023/03/04 00:22:46;;;;;;;11.18;0.77;;;6.10;99.90;;;;;;5025901;28;20029;-79
2023/03/04 00:25:12;;;;;;;17.27;1.37;;;6.10;99.90;;;;;;5027531;28;20380;-80
2023/03/04 00:27:38;;;;;;;13.55;1.58;;;6.10;99.90;;;;;;5028442;28;20534;-79
2023/03/04 00:30:06;;;;;;;14.27;2.45;;;6.10;99.90;;;;;;5028431;28;20029;-79
2023/03/04 00:32:32;;;;;;;11.55;0.88;;;6.10;99.90;;;;;;5026166;28;20036;-76
2023/03/04 00:34:58;;;;;;;11.77;0.85;;;6.10;99.90;;;;;;5025419;28;20408;-76
2023/03/04 00:37:25;;;;;;;10.98;0.85;;;6.10;99.90;;;;;;5032853;28;20033;-79
2023/03/04 00:39:51;;;;;;;9.40;0.70;;;6.10;99.90;;;;;;4995440;28;20039;-82
2023/03/04 00:42:17;;;;;;;12.32;1.17;;;6.10;99.90;;;;;;5030124;28;20424;-78
2023/03/04 00:44:44;;;;;;;14.82;1.55;;;6.10;99.90;;;;;;5011240;28;21117;-80
2023/03/04 00:47:10;;;;;;;12.07;1.25;;;6.10;99.90;;;;;;5030777;28;20037;-80
2023/03/04 00:49:37;;;;;;;13.38;0.88;;;6.10;99.90;;;;;;5028857;28;20041;-79
2023/03/04 00:52:03;;;;;;;6.97;0.80;;;6.10;99.90;;;;;;5029931;28;20039;-75
2023/03/04 00:54:30;;;;;;;9.50;0.93;;;6.10;99.90;;;;;;5027926;28;20518;-80
2023/03/04 00:56:56;;;;;;;13.65;0.70;;;6.10;99.90;;;;;;5032592;28;20033;-80
2023/03/04 00:59:22;;;;;;;9.17;0.80;;;6.10;99.90;;;;;;5031341;28;21140;-78
2023/03/04 01:01:49;;;;;;;17.25;1.20;;;6.10;99.90;;;;;;5031394;28;20472;-76
2023/03/04 01:04:17;;;;;;;7.05;0.73;;;6.10;99.90;;;;;;4995634;28;20044;-79
2023/03/04 01:06:43;;;;;;;8.27;0.63;;;6.10;99.90;;;;;;5033209;28;20033;-81
2023/03/04 01:09:11;;;;;;;6.93;0.63;;;6.10;99.90;;;;;;5013613;28;20487;-80
2023/03/04 01:11:37;;;;;;;8.88;0.60;;;6.10;99.90;;;;;;4998552;28;20507;-77
2023/03/04 01:14:04;;;;;;;6.72;0.60;;;6.10;99.90;;;;;;5027751;28;20135;-78
2023/03/04 01:16:31;;;;;;;10.32;0.68;;;6.10;99.90;;;;;;5030699;28;20052;-80
2023/03/04 01:18:58;;;;;;;8.13;0.75;;;6.10;99.90;;;;;;5030092;28;20059;-79
2023/03/04 01:21:24;;;;;;;10.75;0.73;;;6.10;99.90;;;;;;5013977;28;20040;-79
2023/03/04 01:23:50;;;;;;;7.72;0.60;;;6.10;99.90;;;;;;5012956;28;20041;-75
2023/03/04 01:26:17;;;;;;;11.20;0.80;;;6.10;99.90;;;;;;5030434;28;20495;-81
2023/03/04 01:28:43;;;;;;;8.15;0.77;;;6.10;99.90;;;;;;5028156;28;20052;-80
2023/03/04 01:31:09;;;;;;;8.50;0.85;;;6.10;99.90;;;;;;5012084;28;20547;-77
2023/03/04 01:33:36;;;;;;;12.80;0.63;;;6.10;99.90;;;;;;5010223;28;20040;-81
2023/03/04 01:36:03;;;;;;;8.45;0.60;;;6.10;99.90;;;;;;5030328;28;20511;-79
2023/03/04 01:38:29;;;;;;;11.20;0.77;;;6.10;99.90;;;;;;5027136;28;20045;-80
2023/03/04 01:40:55;;;;;;;14.50;0.90;;;6.10;99.90;;;;;;5013834;28;20056;-79
2023/03/04 01:43:25;;;;;;;8.02;0.75;;;6.10;99.90;;;;;;5025915;28;20044;-77
2023/03/04 01:45:54;;;;;;;6.93;0.93;;;6.10;99.90;;;;;;5029149;28;20037;-77
2023/03/04 01:48:25;;;;;;;7.13;0.60;;;6.10;99.90;;;;;;5028423;28;20479;-80
2023/03/04 01:50:52;;;;;;;12.15;0.80;;;6.00;99.90;;;;;;5031131;28;20045;-80
2023/03/04 01:53:24;;;;;;;9.82;0.70;;;6.10;99.90;;;;;;5011979;28;20486;-82
2023/03/04 01:55:56;;;;;;;7.40;0.73;;;6.00;99.90;;;;;;4998462;28;20538;-81
2023/03/04 01:58:27;;;;;;;7.28;1.00;;;6.00;99.90;;;;;;4993487;28;20040;-76
2023/03/04 02:00:53;;;;;;;11.45;0.77;;;6.00;99.90;;;;;;5028831;28;20044;-81
2023/03/04 02:03:20;;;;;;;8.25;0.90;;;6.00;99.90;;;;;;5013324;28;20049;-79
2023/03/04 02:05:52;;;;;;;9.90;0.60;;;6.00;99.90;;;;;;5016357;28;20060;-79
2023/03/04 02:08:21;;;;;;;9.63;1.13;;;6.00;99.90;;;;;;5011377;28;20029;-81
2023/03/04 02:10:48;;;;;;;8.68;0.60;;;6.00;99.90;;;;;;5014130;28;20041;-80
2023/03/04 02:13:16;;;;;;;9.13;0.60;;;6.00;99.90;;;;;;5000284;28;20048;-78
2023/03/04 02:15:44;;;;;;;10.95;1.13;;;6.00;99.90;;;;;;5031633;28;20060;-80
2023/03/04 02:18:19;;;;;;;5.63;0.57;;;6.00;99.90;;;;;;4996519;28;20036;-78
2023/03/04 02:21:19;;;;;;;12.40;0.80;;;6.00;99.90;;;;;;5030869;28;20583;-77
2023/03/04 02:24:16;;;;;;;14.25;0.88;;;6.00;99.90;;;;;;5026642;28;20495;-79
2023/03/04 02:26:45;;;;;;;11.25;1.17;;;6.00;99.90;;;;;;5013562;28;20060;-78
2023/03/04 02:29:14;;;;;;;14.10;0.90;;;5.90;99.90;;;;;;4996148;28;20498;-79
2023/03/04 02:31:43;;;;;;;11.45;0.70;;;5.90;99.90;;;;;;5011536;28;20040;-76
2023/03/04 02:34:23;;;;;;;13.40;0.90;;;5.90;99.90;;;;;;5024708;28;20087;-76
2023/03/04 02:36:52;;;;;;;9.68;0.68;;;5.90;99.90;;;;;;4998414;28;20037;-77
2023/03/04 02:39:39;;;;;;;10.15;0.50;;;5.90;99.90;;;;;;5027493;28;20037;-79
2023/03/04 02:42:05;;;;;;;9.30;0.80;;;5.90;99.90;;;;;;5008194;28;20483;-79
2023/03/04 02:44:37;;;;;;;12.98;1.30;;;5.90;99.90;;;;;;5009313;28;20040;-81
2023/03/04 02:47:06;;;;;;;11.15;0.90;;;6.00;99.90;;;;;;4995393;28;20056;-76
2023/03/04 02:49:34;;;;;;;11.48;1.10;;;5.90;99.90;;;;;;5023852;28;20400;-78
2023/03/04 02:52:06;;;;;;;13.80;0.70;;;5.90;99.90;;;;;;5027917;28;20033;-77
2023/03/04 02:54:33;;;;;;;9.55;1.23;;;5.90;99.90;;;;;;5024109;28;20036;-80
2023/03/04 02:57:03;;;;;;;12.38;1.33;;;5.90;99.90;;;;;;5025714;28;20033;-81
2023/03/04 02:59:31;;;;;;;8.65;0.80;;;5.90;99.90;;;;;;5025998;28;20376;-80
2023/03/04 03:01:57;;;;;;;16.73;0.80;;;5.90;99.90;;;;;;5011140;28;20056;-80
2023/03/04 03:04:25;;;;;;;10.13;0.90;;;5.90;99.90;;;;;;5009693;28;20584;-79
2023/03/04 03:06:53;;;;;;;10.77;0.70;;;6.00;99.90;;;;;;5009379;28;20494;-77
2023/03/04 03:09:20;;;;;;;9.40;0.77;;;5.90;99.90;;;;;;5008401;28;20049;-76
2023/03/04 03:11:47;;;;;;;14.10;0.93;;;5.90;99.90;;;;;;5012969;28;20048;-80
2023/03/04 03:14:14;;;;;;;10.90;0.90;;;5.90;99.90;;;;;;5023189;28;20412;-81
2023/03/04 03:16:40;;;;;;;5.43;0.40;;;5.90;99.90;;;;;;5009224;28;20033;-76
2023/03/04 03:19:07;;;;;;;9.10;0.43;;;5.90;99.90;;;;;;5023703;28;20025;-78
2023/03/04 03:21:35;;;;;;;5.60;0.57;;;6.00;99.90;;;;;;5009528;28;20037;-79
2023/03/04 03:24:01;;;;;;;7.70;0.80;;;5.90;99.90;;;;;;5006091;28;20040;-78
2023/03/04 03:26:28;;;;;;;5.97;0.45;;;6.00;99.90;;;;;;5011365;28;20470;-80
2023/03/04 03:28:55;;;;;;;7.90;0.60;;;6.00;99.90;;;;;;5007629;28;20503;-78
2023/03/04 03:31:21;;;;;;;13.50;0.80;;;5.90;99.90;;;;;;5010593;28;20033;-82
2023/03/04 03:33:47;;;;;;;8.95;1.05;;;5.90;99.90;;;;;;5007786;28;20040;-80
2023/03/04 03:36:14;;;;;;;8.50;0.60;;;5.90;99.90;;;;;;5007744;28;20033;-80
2023/03/04 03:38:40;;;;;;;5.07;0.70;;;5.90;99.90;;;;;;5025144;28;20039;-81
2023/03/04 03:41:06;;;;;;;6.22;0.45;;;5.90;99.90;;;;;;4993675;28;20036;-79
2023/03/04 03:43:33;;;;;;;6.63;0.80;;;5.90;99.90;;;;;;5022200;28;20044;-80
2023/03/04 03:45:59;;;;;;;7.22;1.02;;;6.00;99.90;;;;;;5007400;28;20048;-79
2023/03/04 03:48:26;;;;;;;10.00;0.80;;;5.90;99.90;;;;;;5008528;28;20072;-79
2023/03/04 03:50:52;;;;;;;8.20;0.93;;;5.90;99.90;;;;;;5027235;28;20037;-80
2023/03/04 03:53:18;;;;;;;7.95;0.80;;;5.90;99.90;;;;;;5024529;28;20518;-79
2023/03/04 03:55:45;;;;;;;6.63;0.40;;;5.90;99.90;;;;;;5010039;28;20040;-77
2023/03/04 03:58:11;;;;;;;7.18;0.43;;;5.90;99.90;;;;;;5026063;28;20033;-82
2023/03/04 04:00:37;;;;;;;7.00;0.40;;;5.90;99.90;;;;;;5011159;28;20033;-81
2023/03/04 04:03:04;;;;;;;5.30;0.47;;;5.90;99.90;;;;;;5021551;28;20033;-79
2023/03/04 04:05:30;;;;;;;8.10;0.60;;;5.90;99.90;;;;;;5026428;28;20032;-80
2023/03/04 04:07:57;;;;;;;8.25;0.60;;;5.90;99.90;;;;;;5022947;28;20045;-78
2023/03/04 04:10:23;;;;;;;11.60;0.70;;;5.90;99.90;;;;;;5027720;28;20547;-78
2023/03/04 04:12:49;;;;;;;6.40;0.80;;;5.90;99.90;;;;;;5012223;28;20067;-76
2023/03/04 04:15:15;;;;;;;13.40;1.10;;;5.90;99.90;;;;;;5030026;28;20049;-77
2023/03/04 04:17:42;;;;;;;10.50;0.98;;;5.90;99.90;;;;;;5012312;28;20037;-78
2023/03/04 04:20:09;;;;;;;7.38;0.80;;;5.90;99.90;;;;;;5028997;28;20036;-80
2023/03/04 04:22:35;;;;;;;7.07;0.60;;;5.90;99.90;;;;;;5031520;28;20047;-77
2023/03/04 04:25:01;;;;;;;5.30;0.45;;;5.90;99.90;;;;;;5012172;28;20431;-80
2023/03/04 04:27:28;;;;;;;10.63;0.80;;;5.80;99.90;;;;;;5031120;28;20045;-79
2023/03/04 04:29:54;;;;;;;15.30;0.90;;;5.90;99.90;;;;;;5028195;28;20047;-80
2023/03/04 04:32:20;;;;;;;10.40;0.60;;;5.90;99.90;;;;;;5030034;28;20040;-81
2023/03/04 04:34:47;;;;;;;6.50;0.40;;;5.90;99.90;;;;;;5029458;28;20025;-80
2023/03/04 04:37:13;;;;;;;11.88;0.70;;;5.90;99.90;;;;;;5027389;28;20028;-76
2023/03/04 04:39:39;;;;;;;10.65;0.50;;;5.80;99.90;;;;;;5012290;28;20749;-81
2023/03/04 04:42:06;;;;;;;4.65;0.57;;;5.90;99.90;;;;;;5031842;28;20024;-80
2023/03/04 04:44:32;;;;;;;6.13;0.50;;;5.90;99.90;;;;;;5011545;28;20036;-80
2023/03/04 04:46:58;;;;;;;5.72;0.40;;;5.80;99.90;;;;;;5015853;28;20044;-80
2023/03/04 04:49:24;;;;;;;8.45;0.60;;;5.80;99.90;;;;;;5026001;28;20029;-75
2023/03/04 04:51:51;;;;;;;7.95;0.43;;;5.90;99.90;;;;;;5030683;28;20040;-80
2023/03/04 04:54:17;;;;;;;4.07;0.50;;;5.90;99.90;;;;;;5013371;28;20051;-82
2023/03/04 04:56:43;;;;;;;5.63;0.30;;;5.90;99.90;;;;;;5016749;28;20032;-83
2023/03/04 04:59:10;;;;;;;10.32;0.88;;;5.90;99.90;;;;;;5026497;28;20032;-75
2023/03/04 05:01:36;;;;;;;4.68;0.30;;;5.90;99.90;;;;;;5012229;28;20496;-77
2023/03/04 05:04:02;;;;;;;6.45;0.65;;;5.90;99.90;;;;;;4995883;28;20044;-78
2023/03/04 05:06:29;;;;;;;4.97;0.40;;;5.90;99.90;;;;;;4999126;28;20124;-81
2023/03/04 05:08:55;;;;;;;9.23;0.50;;;5.90;99.90;;;;;;5012553;28;20467;-78
2023/03/04 05:11:22;;;;;;;6.43;0.40;;;5.90;99.90;;;;;;5029137;28;20041;-79
2023/03/04 05:13:48;;;;;;;6.47;0.40;;;5.80;99.90;;;;;;5027662;28;20469;-76
2023/03/04 05:16:16;;;;;;;4.93;0.40;;;5.80;99.90;;;;;;5032510;28;20045;-79
2023/03/04 05:18:43;;;;;;;8.13;0.85;;;5.80;99.90;;;;;;5026844;28;20602;-80
2023/03/04 05:21:09;;;;;;;9.10;0.60;;;5.80;99.90;;;;;;4998350;28;20051;-80
2023/03/04 05:23:38;;;;;;;10.63;0.70;;;5.80;99.90;;;;;;5027860;28;20040;-80
2023/03/04 05:26:05;;;;;;;8.40;0.60;;;5.80;99.90;;;;;;5031319;28;20041;-82
2023/03/04 05:28:33;;;;;;;2.80;0.40;;;5.70;99.90;;;;;;5010591;28;20060;-77
2023/03/04 05:30:59;;;;;;;6.55;1.15;;;5.70;99.90;;;;;;5028217;28;20040;-78
2023/03/04 05:33:26;;;;;;;5.28;0.57;;;5.70;99.90;;;;;;5028755;28;20661;-78
2023/03/04 05:35:53;;;;;;;13.40;0.68;;;5.70;99.90;;;;;;5030992;28;20041;-75
2023/03/04 05:38:21;;;;;;;7.10;0.70;;;5.80;99.90;;;;;;5026344;28;20797;-77
2023/03/04 05:40:47;;;;;;;4.93;0.50;;;5.70;99.90;;;;;;5030094;28;20498;-81
2023/03/04 05:43:14;;;;;;;7.43;0.50;;;5.70;99.90;;;;;;5011698;28;20056;-78
2023/03/04 05:45:41;;;;;;;4.82;0.70;;;5.70;99.90;;;;;;5033785;28;20040;-77
2023/03/04 05:48:07;;;;;;;7.05;0.43;;;5.70;99.90;;;;;;5030523;28;20048;-80
2023/03/04 05:50:34;;;;;;;8.02;0.50;;;5.70;99.90;;;;;;5013357;28;20037;-81
2023/03/04 05:53:01;;;;;;;3.20;0.30;;;5.70;99.90;;;;;;4995624;28;20037;-76
2023/03/04 05:55:28;;;;;;;9.65;0.50;;;5.70;99.90;;;;;;5032924;28;20040;-81
2023/03/04 05:57:55;;;;;;;5.88;0.40;;;5.70;99.90;;;;;;5010145;28;20041;-81
2023/03/04 06:00:22;;;;;;;8.30;0.70;;;5.70;99.90;;;;;;5030710;28;20025;-76
2023/03/04 06:02:49;;;;;;;4.43;0.32;;;5.70;99.90;;;;;;5011313;28;20069;-77
2023/03/04 06:05:16;;;;;;;6.05;0.45;;;5.70;99.90;;;;;;5032011;28;20028;-78
2023/03/04 06:07:42;;;;;;;4.50;0.50;;;5.70;99.90;;;;;;5027569;28;20411;-79
2023/03/04 06:10:11;;;;;;;4.47;0.55;;;5.70;99.90;;;;;;5030316;28;20037;-79
2023/03/04 06:12:38;;;;;;;8.02;0.80;;;5.70;99.90;;;;;;5012215;28;20036;-79
2023/03/04 06:15:05;;;;;;;6.10;0.40;;;5.70;99.90;;;;;;5029325;28;20235;-75
2023/03/04 06:17:32;;;;;;;8.48;0.40;;;5.70;99.90;;;;;;5028630;28;20025;-75
2023/03/04 06:19:58;;;;;;;4.60;0.30;;;5.70;99.90;;;;;;5013263;28;20029;-81
2023/03/04 06:22:24;;;;;;;5.90;0.50;;;5.70;99.90;;;;;;5033230;28;20412;-81
2023/03/04 06:24:50;;;;;;;4.88;0.38;;;5.70;99.90;;;;;;5030851;28;20041;-79
2023/03/04 06:27:17;;;;;;;6.93;0.50;;;5.70;99.90;;;;;;5014756;28;20037;-79
2023/03/04 06:29:43;;;;;;;6.40;0.60;;;5.70;99.90;;;;;;5029017;28;20049;-81
2023/03/04 06:32:09;;;;;;;8.45;0.52;;;5.70;99.90;;;;;;5030710;28;20244;-82
2023/03/04 06:34:36;;;;;;;6.70;0.60;;;5.70;99.90;;;;;;5010250;28;20045;-78
2023/03/04 06:37:02;;;;;;;5.65;0.40;;;5.70;99.90;;;;;;5013313;28;20048;-77
2023/03/04 06:39:29;;;;;;;6.20;0.73;;;5.70;99.90;;;;;;5010250;28;20056;-81
2023/03/04 06:41:55;;;;;;;3.45;0.40;;;5.70;99.90;;;;;;5032448;28;20037;-80
2023/03/04 06:44:21;;;;;;;4.13;0.40;;;5.70;99.90;;;;;;5027357;28;20040;-78
2023/03/04 06:46:48;;;;;;;7.88;0.73;;;5.70;99.90;;;;;;5030956;28;20510;-77
2023/03/04 06:49:14;;;;;;;4.03;0.30;;;5.70;99.90;;;;;;4996732;28;20519;-80
2023/03/04 06:51:40;;;;;;;7.13;0.40;;;5.70;99.90;;;;;;5031515;28;20048;-80
2023/03/04 06:54:06;;;;;;;5.75;0.32;;;5.70;99.90;;;;;;5027642;28;20749;-80
2023/03/04 06:56:33;;;;;;;6.60;0.40;;;5.70;99.90;;;;;;5013101;28;20059;-80
2023/03/04 06:58:59;;;;;;;4.35;0.35;;;5.80;99.90;;;;;;5028989;28;20029;-81
2023/03/04 07:01:27;;;;;;;7.70;0.88;;;5.80;99.90;;;;;;5011487;28;20033;-81
2023/03/04 07:03:55;;;;;;;5.53;0.47;;;5.80;99.90;;;;;;5028538;28;20040;-79
2023/03/04 07:06:24;;;;;;;7.10;0.77;;;5.80;99.90;;;;;;5011041;28;20036;-77
2023/03/04 07:08:51;;;;;;;8.90;0.45;;;5.90;99.90;;;;;;5029688;28;20037;-81
2023/03/04 07:11:18;;;;;;;3.22;0.30;;;5.90;99.90;;;;;;5011599;28;20041;-79
2023/03/04 07:13:45;;;;;;;8.00;0.50;;;5.90;99.90;;;;;;5011084;28;20052;-80
2023/03/04 07:16:16;;;;;;;4.22;0.50;;;6.00;99.90;;;;;;5030430;28;20141;-78
2023/03/04 07:18:43;;;;;;;7.32;0.47;;;6.00;99.90;;;;;;5011626;28;20043;-79
2023/03/04 07:21:11;;;;;;;3.72;0.30;;;5.90;99.90;;;;;;5030650;28;20032;-80
2023/03/04 07:23:37;;;;;;;8.68;0.45;;;6.00;99.90;;;;;;5010069;28;20631;-81
2023/03/04 07:26:04;;;;;;;5.65;0.50;;;5.90;99.90;;;;;;5013280;28;20060;-78
2023/03/04 07:28:31;;;;;;;4.32;0.40;;;5.90;99.90;;;;;;5026229;28;20040;-81
2023/03/04 07:31:07;;;;;;;6.82;0.50;;;5.80;99.90;;;;;;5030898;28;20032;-80
2023/03/04 07:33:33;;;;;;;4.55;0.50;;;5.90;99.90;;;;;;4995653;28;20582;-77
2023/03/04 07:36:00;;;;;;;3.65;0.43;;;5.80;99.90;;;;;;5029896;28;20506;-76
2023/03/04 07:38:26;;;;;;;5.68;0.45;;;5.90;99.90;;;;;;5025866;28;20040;-78
2023/03/04 07:40:58;;;;;;;9.27;0.68;;;5.90;99.90;;;;;;5032562;28;20028;-80
2023/03/04 07:43:25;;;;;;;6.72;0.50;;;6.00;99.90;;;;;;5026352;28;20048;-79
2023/03/04 07:45:56;;;;;;;3.83;0.30;;;6.10;99.90;;;;;;5029761;28;20699;-78
2023/03/04 07:48:23;;;;;;;11.27;0.70;;;6.10;99.90;;;;;;4992969;28;20039;-78
2023/03/04 07:50:49;;;;;;;8.95;0.75;;;6.20;99.90;;;;;;5030083;28;20032;-81
2023/03/04 07:53:15;;;;;;;5.57;0.50;;;6.20;99.90;;;;;;5027795;28;20412;-79
2023/03/04 07:55:42;;;;;;;6.90;0.80;;;6.30;99.90;;;;;;5028486;28;20043;-80
2023/03/04 07:58:08;;;;;;;6.38;0.60;;;6.40;99.90;;;;;;5032256;28;20408;-80
2023/03/04 08:00:34;;;;;;;6.00;0.47;;;6.50;99.90;;;;;;5011199;28;20056;-81
2023/03/04 08:03:00;;;;;;;8.10;0.85;;;6.60;99.90;;;;;;5025692;28;20033;-77
2023/03/04 08:05:27;;;;;;;6.22;0.77;;;6.60;99.90;;;;;;5029672;28;20346;-77
2023/03/04 08:07:56;;;;;;;7.03;0.50;;;6.70;99.90;;;;;;5010806;28;20921;-81
2023/03/04 08:10:22;;;;;;;4.63;0.32;;;6.80;99.90;;;;;;5031540;28;20051;-75
2023/03/04 08:12:49;;;;;;;6.25;0.70;;;6.80;99.90;;;;;;5011837;28;20043;-76
2023/03/04 08:15:15;;;;;;;4.53;0.40;;;7.00;99.90;;;;;;5027598;28;20061;-78
2023/03/04 08:17:41;;;;;;;6.15;1.30;;;7.10;99.90;;;;;;5027317;28;20044;-78
2023/03/04 08:20:09;;;;;;;5.53;0.52;;;7.10;99.90;;;;;;4994797;28;20032;-79
2023/03/04 08:22:35;;;;;;;6.03;0.40;;;7.20;99.90;;;;;;5030986;28;20058;-78
2023/03/04 08:25:02;;;;;;;5.18;0.45;;;7.30;99.90;;;;;;5012546;28;20037;-81
2023/03/04 08:27:28;;;;;;;5.90;1.00;;;7.30;99.90;;;;;;4999320;28;20132;-81
2023/03/04 08:29:54;;;;;;;4.60;0.55;;;7.30;99.90;;;;;;5029199;28;20396;-79
2023/03/04 08:32:21;;;;;;;3.70;0.38;;;7.30;99.90;;;;;;5027098;28;20037;-78
2023/03/04 08:34:47;;;;;;;2.30;0.38;;;7.30;99.90;;;;;;5026470;28;20045;-80
2023/03/04 08:37:13;;;;;;;6.28;0.50;;;7.30;99.90;;;;;;5029997;28;20060;-80
2023/03/04 08:39:39;;;;;;;3.20;0.40;;;7.40;99.90;;;;;;4990546;28;20039;-80
2023/03/04 08:42:06;;;;;;;8.35;0.50;;;7.40;99.90;;;;;;5015324;28;20044;-80
2023/03/04 08:44:32;;;;;;;5.18;0.85;;;7.50;99.90;;;;;;5010399;28;20041;-81
2023/03/04 08:46:58;;;;;;;4.82;0.40;;;7.60;99.90;;;;;;5030603;28;20408;-79
2023/03/04 08:49:24;;;;;;;6.88;0.80;;;7.70;99.90;;;;;;5029447;28;20045;-79
2023/03/04 08:51:51;;;;;;;5.78;0.50;;;7.70;99.90;;;;;;5031405;28;20036;-76
2023/03/04 08:54:17;;;;;;;7.15;0.43;;;7.70;99.90;;;;;;5027415;28;20030;-80
2023/03/04 08:56:43;;;;;;;3.80;0.40;;;7.70;99.90;;;;;;4998326;28;20033;-77
2023/03/04 08:59:10;;;;;;;6.40;0.90;;;7.70;99.90;;;;;;5033999;28;20036;-76
2023/03/04 09:01:36;;;;;;;4.47;0.40;;;7.80;99.90;;;;;;5031844;28;21046;-80
2023/03/04 09:04:03;;;;;;;7.47;0.60;;;7.70;99.90;;;;;;5030292;28;20400;-79
2023/03/04 09:06:29;;;;;;;3.90;0.30;;;7.70;99.90;;;;;;5033218;28;20036;-79
2023/03/04 09:08:55;;;;;;;4.80;0.40;;;7.60;99.90;;;;;;5031255;28;20037;-78
2023/03/04 09:11:22;;;;;;;4.43;0.35;;;7.60;99.90;;;;;;5015783;28;20033;-76
2023/03/04 09:13:50;;;;;;;8.18;0.50;;;7.50;99.90;;;;;;5030444;28;21107;-78
2023/03/04 09:16:16;;;;;;;5.25;0.93;;;7.50;99.90;;;;;;5032121;28;20045;-78
2023/03/04 09:18:43;;;;;;;4.05;0.40;;;7.50;99.90;;;;;;5029839;28;20052;-78
2023/03/04 09:21:10;;;;;;;3.00;0.47;;;7.60;99.90;;;;;;5016824;28;20075;-75
2023/03/04 09:23:37;;;;;;;6.63;0.50;;;7.60;99.90;;;;;;5013152;28;20040;-75
2023/03/04 09:26:27;;;;;;;5.30;0.50;;;7.70;99.90;;;;;;5033516;28;20040;-77
2023/03/04 09:28:56;;;;;;;5.63;0.40;;;7.70;99.90;;;;;;5029913;28;20037;-75
2023/03/04 09:31:24;;;;;;;5.72;0.55;;;7.80;99.90;;;;;;5030938;28;20472;-76
2023/03/04 09:33:52;;;;;;;2.42;0.40;;;7.90;99.90;;;;;;5029557;28;20037;-76
2023/03/04 09:36:18;;;;;;;4.55;0.77;;;7.90;99.90;;;;;;5030306;28;20021;-77
2023/03/04 09:38:45;;;;;;;4.00;0.30;;;7.90;99.90;;;;;;5029607;28;20033;-77
2023/03/04 09:41:17;;;;;;;1.38;0.45;;;7.80;99.90;;;;;;5032202;28;20027;-74
2023/03/04 09:43:45;;;;;;;3.73;0.50;;;7.80;99.90;;;;;;4993514;28;20037;-76
2023/03/04 09:46:17;;;;;;;2.58;0.30;;;7.80;99.90;;;;;;5013907;28;20829;-76
2023/03/04 09:48:49;;;;;;;2.97;0.50;;;7.90;99.90;;;;;;5012468;28;20093;-76
2023/03/04 09:51:21;;;;;;;;;;;8.00;99.90;;;;;;5031532;28;20029;-77
2023/03/04 09:54:25;;;;;;;1.88;0.40;;;8.10;99.90;;;;;;5013762;28;19913;-75
2023/03/04 09:57:14;;;;;;;3.65;0.55;;;8.30;99.90;;;;;;5032817;28;20041;-75
2023/03/04 10:00:05;;;;;;;5.95;0.50;;;8.40;99.90;;;;;;4998185;28;20426;-76
2023/03/04 10:03:08;;;;;;;2.05;0.30;;;8.50;99.90;;;;;;5024518;28;20487;-76
2023/03/04 10:05:44;;;;;;;3.80;0.40;;;8.60;99.90;;;;;;5012251;28;20036;-75
2023/03/04 10:08:50;;;;;;;3.15;0.40;;;8.80;99.90;;;;;;5032058;28;20380;-77
2023/03/04 10:11:29;;;;;;;1.52;0.30;;;8.90;99.90;;;;;;5028100;28;20416;-77
2023/03/04 10:14:10;;;;;;;1.95;0.30;;;9.10;99.90;;;;;;5028073;28;20048;-75
2023/03/04 10:16:44;;;;;;;2.85;0.43;;;9.30;99.90;;;;;;5031991;28;20518;-77
2023/03/04 10:19:13;;;;;;;2.03;0.30;;;9.50;99.90;;;;;;5030331;28;20021;-78
2023/03/04 10:21:49;;;;;;;3.30;0.50;;;9.50;99.90;;;;;;5031417;28;20458;-77
2023/03/04 10:24:18;;;;;;;3.20;0.43;;;9.50;99.90;;;;;;4993652;28;20492;-76
2023/03/04 10:26:47;;;;;;;1.75;0.40;;;9.50;99.90;;;;;;5029920;28;20048;-76
2023/03/04 10:29:16;;;;;;;3.40;0.50;;;9.40;99.90;;;;;;5011441;28;20392;-76
2023/03/04 10:31:44;;;;;;;4.18;0.40;;;9.30;99.90;;;;;;5029853;28;20037;-77
2023/03/04 10:34:12;;;;;;;1.33;0.40;;;9.10;99.90;;;;;;5011365;28;20059;-77
2023/03/04 10:37:00;;;;;;;2.67;0.30;;;8.90;99.90;;;;;;5013525;28;20032;-77
2023/03/04 10:39:28;;;;;;;2.35;0.43;;;8.80;99.90;;;;;;5026661;28;20044;-75
2023/03/04 10:42:04;;;;;;;2.78;0.60;;;8.70;99.90;;;;;;5029750;28;20039;-77
2023/03/04 10:44:33;;;;;;;3.15;0.40;;;8.60;99.90;;;;;;5011538;28;20043;-74
2023/03/04 10:47:00;;;;;;;0.93;0.40;;;8.50;99.90;;;;;;5014409;28;20043;-74
2023/03/04 10:49:28;;;;;;;2.67;0.40;;;8.40;99.90;;;;;;5027888;28;20033;-73
2023/03/04 10:52:02;;;;;;;3.95;0.40;;;8.30;99.90;;;;;;5013620;28;20056;-73
2023/03/04 10:54:41;;;;;;;2.78;0.40;;;8.20;99.90;;;;;;5028463;28;20406;-74
2023/03/04 10:57:14;;;;;;;3.95;0.47;;;8.20;99.90;;;;;;5030437;28;20067;-75
2023/03/04 10:59:52;;;;;;;5.38;1.88;;;8.20;99.90;;;;;;5009124;28;20131;-75
2023/03/04 11:02:28;;;;;;;1.60;0.60;;;8.30;99.90;;;;;;5015071;28;20479;-75
2023/03/04 11:05:17;;;;;;;4.18;0.60;;;8.40;99.90;;;;;;5027538;28;20503;-75
2023/03/04 11:07:48;;;;;;;3.00;0.30;;;8.50;99.90;;;;;;4993174;28;20055;-73
2023/03/04 11:10:22;;;;;;;1.50;0.30;;;8.60;99.90;;;;;;5029738;28;20036;-75
2023/03/04 11:12:59;;;;;;;3.88;0.77;;;8.60;99.90;;;;;;5010248;28;20495;-74
2023/03/04 11:15:30;;;;;;;2.40;0.55;;;8.70;99.90;;;;;;5011083;28;20382;-74
2023/03/04 11:17:58;;;;;;;3.05;0.50;;;8.70;99.90;;;;;;5011321;28;20037;-76
2023/03/04 11:20:35;;;;;;;3.35;0.57;;;8.90;99.90;;;;;;5029068;28;20037;-76
2023/03/04 11:23:19;;;;;;;1.48;0.35;;;9.10;99.90;;;;;;5026589;28;20048;-75
2023/03/04 11:26:00;;;;;;;3.03;0.68;;;9.10;99.90;;;;;;5029035;28;20029;-75
2023/03/04 11:28:42;;;;;;;1.88;0.20;;;9.20;99.90;;;;;;5027373;28;20036;-75
2023/03/04 11:31:14;;;;;;;1.08;0.20;;;9.30;99.90;;;;;;5011948;28;20029;-75
2023/03/04 11:33:43;;;;;;;2.25;0.30;;;9.50;99.90;;;;;;5007781;28;20040;-75
2023/03/04 11:36:13;;;;;;;1.00;0.28;;;9.80;99.90;;;;;;5012435;28;20234;-76
2023/03/04 11:38:46;;;;;;;1.55;0.20;;;10.20;99.90;;;;;;5010322;28;20085;-76
2023/03/04 11:41:22;;;;;;;1.02;0.13;;;10.30;99.90;;;;;;5030089;28;20407;-76
2023/03/04 11:43:48;;;;;;;3.45;0.30;;;10.30;99.90;;;;;;5016736;28;20040;-76
2023/03/04 11:46:18;;;;;;;0.82;0.20;;;10.20;99.90;;;;;;5030113;28;20036;-74
2023/03/04 11:49:20;;;;;;;1.00;0.20;;;10.00;99.90;;;;;;4998224;28;20052;-74
2023/03/04 11:52:23;;;;;;;1.63;0.10;;;9.80;99.90;;;;;;4998542;28;20598;-74
2023/03/04 11:55:22;;;;;;;;;;;9.50;99.90;;;;;;5024217;28;20045;-74
2023/03/04 11:58:33;;;;;;;0.90;0.20;;;9.30;99.90;;;;;;5006700;28;20402;-73
2023/03/04 12:01:42;;;;;;;2.60;0.30;;;9.10;99.90;;;;;;4987480;28;20060;-73
2023/03/04 12:04:17;;;;;;;2.15;0.73;;;9.00;99.90;;;;;;4986613;28;20060;-74
2023/03/04 12:07:22;;;;;;;2.47;0.30;;;8.90;99.90;;;;;;5006463;28;20068;-73
2023/03/04 12:09:51;;;;;;;2.40;0.20;;;8.90;99.90;;;;;;5010277;28;20403;-74
2023/03/04 12:12:47;;;;;;;1.10;0.30;;;9.10;99.90;;;;;;5027707;28;20033;-75
2023/03/04 12:15:30;;;;;;;1.55;0.20;;;9.30;99.90;;;;;;5027529;28;20416;-73
2023/03/04 12:18:15;;;;;;;1.95;0.20;;;9.60;99.90;;;;;;5027416;28;20051;-73
2023/03/04 12:21:21;;;;;;;2.00;0.20;;;10.10;99.90;;;;;;4999736;28;20037;-73
2023/03/04 12:24:06;;;;;;;3.05;0.20;;;10.50;99.90;;;;;;5009947;28;20036;-74
2023/03/04 12:26:58;;;;;;;0.70;0.17;;;10.80;99.90;;;;;;5026681;28;20045;-76
2023/03/04 12:29:54;;;;;;;0.60;0.20;;;10.90;99.90;;;;;;5007308;28;20044;-75
2023/03/04 12:32:49;;;;;;;1.58;0.50;;;10.80;99.90;;;;;;5030905;28;20570;-78
2023/03/04 12:35:16;;;;;;;2.33;0.40;;;10.60;99.90;;;;;;5030309;28;20123;-76
2023/03/04 12:38:13;;;;;;;7.00;3.80;;;10.40;99.90;;;;;;5029954;28;20776;-80
2023/03/04 12:41:02;;;;;;;7.78;2.60;;;10.10;99.90;;;;;;5033032;28;20839;-78
2023/03/04 12:43:31;;;;;;;6.10;0.70;;;9.70;99.90;;;;;;5012550;28;20045;-77
2023/03/04 12:46:36;;;;;;;4.22;0.30;;;9.30;99.90;;;;;;5015205;28;22941;-78
2023/03/04 12:49:33;;;;;;;6.10;0.80;;;9.00;99.90;;;;;;5027851;28;20034;-75
2023/03/04 12:52:05;;;;;;;9.02;2.25;;;8.90;99.90;;;;;;5016016;28;20108;-74
2023/03/04 12:54:36;;;;;;;;;;;8.70;99.90;;;;;;5030379;28;20045;-75
2023/03/04 12:57:09;;;;;;;4.55;0.95;;;8.60;99.90;;;;;;5034219;28;19913;-76
2023/03/04 12:59:44;;;;;;;8.98;1.33;;;8.60;99.90;;;;;;5029840;28;20029;-76
2023/03/04 13:02:28;;;;;;;7.03;0.55;;;8.60;99.90;;;;;;5033138;28;20029;-74
2023/03/04 13:05:25;;;;;;;5.00;0.50;;;8.70;99.90;;;;;;5012917;28;20087;-75
2023/03/04 13:08:07;;;;;;;15.05;3.83;;;8.90;99.90;;;;;;5013150;28;20060;-75
2023/03/04 13:10:33;;;;;;;8.68;0.98;;;9.10;99.90;;;;;;5034010;28;20326;-76
2023/03/04 13:13:01;;;;;;;9.40;1.00;;;9.50;99.90;;;;;;4997896;28;20041;-76